createdAt,value
2023-12-03T00:02:25.404Z,7.63
2023-12-03T00:05:13.817Z,7.43
2023-12-03T00:08:00.436Z,7.93
2023-12-03T00:10:47.410Z,6.43
2023-12-03T00:13:33.468Z,8.33
2023-12-03T00:16:20.745Z,9.00
2023-12-03T00:19:08.770Z,7.67
2023-12-03T00:21:55.299Z,6.87
2023-12-03T00:24:41.764Z,8.33
2023-12-03T00:27:27.831Z,6.73
2023-12-03T00:30:15.366Z,6.37
2023-12-03T00:33:02.162Z,6.77
2023-12-03T00:35:49.698Z,7.93
2023-12-03T00:38:36.079Z,7.40
2023-12-03T00:41:22.564Z,8.40
2023-12-03T00:44:08.958Z,7.43
2023-12-03T00:46:55.445Z,9.20
2023-12-03T00:49:43.795Z,9.10
2023-12-03T00:52:33.150Z,8.20
2023-12-03T00:55:21.361Z,8.40
2023-12-03T00:58:08.482Z,6.63
2023-12-03T01:00:54.882Z,6.93
2023-12-03T01:03:41.104Z,8.53
2023-12-03T01:06:27.300Z,8.37
2023-12-03T01:09:15.251Z,8.83
2023-12-03T01:12:02.151Z,7.40
2023-12-03T01:14:48.256Z,8.77
2023-12-03T01:17:34.798Z,6.67
2023-12-03T01:20:21.334Z,6.63
2023-12-03T01:23:08.083Z,6.40
2023-12-03T01:25:55.620Z,7.47
2023-12-03T01:28:41.960Z,9.43
2023-12-03T01:31:28.097Z,7.63
2023-12-03T01:34:15.298Z,7.87
2023-12-03T01:37:02.158Z,8.30
2023-12-03T01:39:48.679Z,8.63
2023-12-03T01:42:36.474Z,9.17
2023-12-03T01:45:22.635Z,7.67
2023-12-03T01:48:09.092Z,9.60
2023-12-03T01:50:58.567Z,8.63
2023-12-03T01:53:45.467Z,8.67
2023-12-03T01:56:31.597Z,8.33
2023-12-03T01:59:19.046Z,8.23
2023-12-03T02:02:05.829Z,7.40
2023-12-03T02:04:52.426Z,8.40
2023-12-03T02:07:38.518Z,8.40
2023-12-03T02:10:25.248Z,9.07
2023-12-03T02:13:11.811Z,7.00
2023-12-03T02:15:59.823Z,8.87
2023-12-03T02:18:46.110Z,8.67
2023-12-03T02:21:32.377Z,9.00
2023-12-03T02:24:19.949Z,8.27
2023-12-03T02:27:06.631Z,8.63
2023-12-03T02:29:52.808Z,8.37
2023-12-03T02:32:39.013Z,8.00
2023-12-03T02:35:25.406Z,8.93
2023-12-03T02:38:11.706Z,9.87
2023-12-03T02:40:59.848Z,7.53
2023-12-03T02:43:46.294Z,9.23
2023-12-03T02:46:32.514Z,8.63
2023-12-03T02:49:18.788Z,10.43
2023-12-03T02:52:05.648Z,9.10
2023-12-03T02:54:52.036Z,8.67
2023-12-03T02:57:39.775Z,9.67
2023-12-03T03:00:26.309Z,9.53
2023-12-03T03:03:12.547Z,8.70
2023-12-03T03:05:58.740Z,9.70
2023-12-03T03:08:45.198Z,9.23
2023-12-03T03:11:31.588Z,8.17
2023-12-03T03:14:19.141Z,7.73
2023-12-03T03:17:06.148Z,9.87
2023-12-03T03:19:52.467Z,9.00
2023-12-03T03:22:38.816Z,8.37
2023-12-03T03:25:25.018Z,9.07
2023-12-03T03:28:11.349Z,9.17
2023-12-03T03:31:00.191Z,9.27
2023-12-03T03:33:46.398Z,7.13
2023-12-03T03:36:32.823Z,8.87
2023-12-03T03:39:18.932Z,8.20
2023-12-03T03:42:05.810Z,8.77
2023-12-03T03:44:52.203Z,8.93
2023-12-03T03:47:40.020Z,9.13
2023-12-03T03:50:26.561Z,8.93
2023-12-03T03:53:12.875Z,9.40
2023-12-03T03:55:58.974Z,9.80
2023-12-03T03:58:45.468Z,9.03
2023-12-03T04:01:31.907Z,9.27
2023-12-03T04:04:19.618Z,8.47
2023-12-03T04:07:06.192Z,9.43
2023-12-03T04:09:52.398Z,9.13
2023-12-03T04:12:38.789Z,10.17
2023-12-03T04:15:25.135Z,10.40
2023-12-03T04:18:11.615Z,10.23
2023-12-03T04:20:59.737Z,9.50
2023-12-03T04:23:46.001Z,9.50
2023-12-03T04:26:32.384Z,9.73
2023-12-03T04:29:18.871Z,10.03
2023-12-03T04:32:06.608Z,9.30
2023-12-03T04:34:52.902Z,9.20
2023-12-03T04:37:40.628Z,8.23
2023-12-03T04:40:26.868Z,9.70
2023-12-03T04:43:13.003Z,10.37
2023-12-03T04:45:59.397Z,8.80
2023-12-03T04:48:45.793Z,9.93
2023-12-03T04:51:31.880Z,9.57
2023-12-03T04:54:19.577Z,9.23
2023-12-03T04:57:06.464Z,11.23
2023-12-03T04:59:52.611Z,8.27
2023-12-03T05:02:39.154Z,9.07
2023-12-03T05:05:25.485Z,9.63
2023-12-03T05:08:11.768Z,8.60
2023-12-03T05:10:59.371Z,8.63
2023-12-03T05:13:45.510Z,10.70
2023-12-03T05:16:31.583Z,8.83
2023-12-03T05:19:17.666Z,9.80
2023-12-03T05:22:04.273Z,8.30
2023-12-03T05:24:50.694Z,7.97
2023-12-03T05:27:38.647Z,9.87
2023-12-03T05:30:26.601Z,9.23
2023-12-03T05:33:12.975Z,8.63
2023-12-03T05:35:59.488Z,9.23
2023-12-03T05:38:45.848Z,9.60
2023-12-03T05:41:32.211Z,9.27
2023-12-03T05:44:19.613Z,9.83
2023-12-03T05:47:06.444Z,7.90
2023-12-03T05:49:53.409Z,9.30
2023-12-03T05:52:39.755Z,9.03
2023-12-03T05:55:25.973Z,8.90
2023-12-03T05:58:12.291Z,9.03
2023-12-03T06:00:59.867Z,9.70
2023-12-03T06:03:46.348Z,7.97
2023-12-03T06:06:32.633Z,9.20
2023-12-03T06:09:18.700Z,8.37
2023-12-03T06:12:05.444Z,9.87
2023-12-03T06:14:51.642Z,8.67
2023-12-03T06:17:39.268Z,10.80
2023-12-03T06:20:25.383Z,9.00
2023-12-03T06:23:15.627Z,7.03
2023-12-03T06:26:03.327Z,9.37
2023-12-03T06:28:52.436Z,8.57
2023-12-03T06:31:38.848Z,9.37
2023-12-03T06:34:26.713Z,9.30
2023-12-03T06:37:12.990Z,7.57
2023-12-03T06:39:59.209Z,9.20
2023-12-03T06:42:45.506Z,7.60
2023-12-03T06:45:31.913Z,9.50
2023-12-03T06:48:18.479Z,8.77
2023-12-03T06:51:06.721Z,8.60
2023-12-03T06:53:52.820Z,8.87
2023-12-03T06:56:39.383Z,9.70
2023-12-03T06:59:25.524Z,8.43
2023-12-03T07:02:11.875Z,8.80
2023-12-03T07:04:58.116Z,8.57
2023-12-03T07:07:49.473Z,7.40
2023-12-03T07:10:35.679Z,8.23
2023-12-03T07:13:22.113Z,8.93
2023-12-03T07:16:10.305Z,6.87
2023-12-03T07:18:56.877Z,8.60
2023-12-03T07:21:42.873Z,7.27
2023-12-03T07:24:30.385Z,8.60
2023-12-03T07:27:20.665Z,7.60
2023-12-03T07:30:08.656Z,7.90
2023-12-03T07:32:55.233Z,8.27
2023-12-03T07:35:41.317Z,5.83
2023-12-03T07:38:27.505Z,7.00
2023-12-03T07:41:15.349Z,7.90
2023-12-03T07:44:01.504Z,7.50
2023-12-03T07:46:48.086Z,8.20
2023-12-03T07:49:34.183Z,6.73
2023-12-03T07:52:21.266Z,7.80
2023-12-03T07:55:09.110Z,7.73
2023-12-03T07:57:56.701Z,8.67
2023-12-03T08:00:42.920Z,8.07
2023-12-03T08:03:29.070Z,7.83
2023-12-03T08:06:15.557Z,6.57
2023-12-03T08:09:02.168Z,9.43
2023-12-03T08:11:48.551Z,7.30
2023-12-03T08:14:36.396Z,6.97
2023-12-03T08:17:22.587Z,9.00
2023-12-03T08:20:11.426Z,7.50
2023-12-03T08:22:58.361Z,6.30
2023-12-03T08:25:44.462Z,6.97
2023-12-03T08:28:30.780Z,6.73
2023-12-03T08:31:18.546Z,7.10
2023-12-03T08:34:04.815Z,5.67
2023-12-03T08:36:51.071Z,7.33
2023-12-03T08:39:37.521Z,6.93
2023-12-03T08:42:24.111Z,6.97
2023-12-03T08:45:10.751Z,6.30
2023-12-03T08:47:58.419Z,6.80
2023-12-03T08:50:44.435Z,7.70
2023-12-03T08:53:30.763Z,6.93
2023-12-03T08:56:17.220Z,6.10
2023-12-03T08:59:03.372Z,6.30
2023-12-03T09:01:49.746Z,7.00
2023-12-03T09:04:40.482Z,7.00
2023-12-03T09:07:26.537Z,6.30
2023-12-03T09:10:13.273Z,7.53
2023-12-03T09:12:59.934Z,8.03
2023-12-03T09:15:46.389Z,7.67
2023-12-03T09:18:34.610Z,7.77
2023-12-03T09:21:22.500Z,8.17
2023-12-03T09:24:08.605Z,6.33
2023-12-03T09:26:55.340Z,6.90
2023-12-03T09:29:41.561Z,6.27
2023-12-03T09:32:27.903Z,6.37
2023-12-03T09:35:14.418Z,7.77
2023-12-03T09:38:02.038Z,6.77
2023-12-03T09:40:50.116Z,7.27
2023-12-03T09:43:39.226Z,6.80
2023-12-03T09:46:26.059Z,7.30
2023-12-03T09:49:13.350Z,6.80
2023-12-03T09:52:01.379Z,6.60
2023-12-03T09:54:49.075Z,5.60
2023-12-03T09:57:37.134Z,6.50
2023-12-03T10:00:24.281Z,5.93
2023-12-03T10:03:10.422Z,6.00
2023-12-03T10:05:57.714Z,5.57
2023-12-03T10:08:46.885Z,7.33
2023-12-03T10:11:40.513Z,4.70
2023-12-03T10:14:26.894Z,6.33
2023-12-03T10:17:20.558Z,5.33
2023-12-03T10:20:23.124Z,5.33
2023-12-03T10:23:16.307Z,5.33
2023-12-03T10:26:11.017Z,4.70
2023-12-03T10:28:58.501Z,6.97
2023-12-03T10:31:44.715Z,6.07
2023-12-03T10:34:31.018Z,6.23
2023-12-03T10:37:17.312Z,6.13
2023-12-03T10:40:03.705Z,5.00
2023-12-03T10:42:50.137Z,6.37
2023-12-03T10:45:37.901Z,5.63
2023-12-03T10:48:25.564Z,5.43
2023-12-03T10:51:12.839Z,6.43
2023-12-03T10:53:59.216Z,5.17
2023-12-03T10:56:50.446Z,4.67
2023-12-03T10:59:40.510Z,4.90
2023-12-03T11:02:34.387Z,5.43
2023-12-03T11:05:27.219Z,4.47
2023-12-03T11:08:14.024Z,4.83
2023-12-03T11:11:01.008Z,5.60
2023-12-03T11:13:50.551Z,4.90
2023-12-03T11:16:55.294Z,6.13
2023-12-03T11:19:53.572Z,5.50
2023-12-03T11:22:57.316Z,4.50
2023-12-03T11:25:53.010Z,5.53
2023-12-03T11:28:53.963Z,6.20
2023-12-03T11:31:40.900Z,4.47
2023-12-03T11:34:27.426Z,5.37
2023-12-03T11:37:15.118Z,5.20
2023-12-03T11:40:09.815Z,5.67
2023-12-03T11:42:56.070Z,5.90
2023-12-03T11:45:45.460Z,5.67
2023-12-03T11:48:33.531Z,4.30
2023-12-03T11:51:20.554Z,5.53
2023-12-03T11:54:09.024Z,5.73
2023-12-03T11:56:58.841Z,5.87
2023-12-03T11:59:45.436Z,5.87
2023-12-03T12:02:31.726Z,5.33
2023-12-03T12:05:18.129Z,4.90
2023-12-03T12:08:05.941Z,5.10
2023-12-03T12:10:55.548Z,5.43
2023-12-03T12:13:42.280Z,5.07
2023-12-03T12:16:28.385Z,6.53
2023-12-03T12:19:16.047Z,5.87
2023-12-03T12:22:02.365Z,6.23
2023-12-03T12:24:48.641Z,5.03
2023-12-03T12:27:36.644Z,5.27
2023-12-03T12:30:33.955Z,5.93
2023-12-03T12:33:22.087Z,5.57
2023-12-03T12:36:10.758Z,5.60
2023-12-03T12:38:57.114Z,5.33
2023-12-03T12:41:43.173Z,5.07
2023-12-03T12:44:46.415Z,5.23
2023-12-03T12:47:36.828Z,5.73
2023-12-03T12:50:34.315Z,5.27
2023-12-03T12:53:21.317Z,5.70
2023-12-03T12:56:08.944Z,5.57
2023-12-03T12:58:55.743Z,4.57
2023-12-03T13:01:45.524Z,4.43
2023-12-03T13:04:32.034Z,5.37
2023-12-03T13:07:18.796Z,6.13
2023-12-03T13:10:05.753Z,4.73
2023-12-03T13:12:51.990Z,4.30
2023-12-03T13:15:38.597Z,4.70
2023-12-03T13:18:27.400Z,4.73
2023-12-03T13:21:13.772Z,5.00
2023-12-03T13:24:07.676Z,4.87
2023-12-03T13:26:58.357Z,5.53
2023-12-03T13:29:44.892Z,6.57
2023-12-03T13:32:31.650Z,5.50
2023-12-03T13:35:19.360Z,4.90
2023-12-03T13:38:05.399Z,5.10
2023-12-03T13:40:51.510Z,7.80
2023-12-03T13:43:37.896Z,5.07
2023-12-03T13:46:24.825Z,4.73
2023-12-03T13:49:11.137Z,4.40
2023-12-03T13:51:59.508Z,4.90
2023-12-03T13:54:46.355Z,5.03
2023-12-03T13:57:32.761Z,5.83
2023-12-03T14:00:19.781Z,4.97
2023-12-03T14:03:06.480Z,4.83
2023-12-03T14:05:52.838Z,5.17
2023-12-03T14:08:40.240Z,5.80
2023-12-03T14:11:26.461Z,5.47
2023-12-03T14:14:12.544Z,5.43
2023-12-03T14:17:00.218Z,5.40
2023-12-03T14:19:46.774Z,7.13
2023-12-03T14:22:33.160Z,6.17
2023-12-03T14:25:20.846Z,5.23
2023-12-03T14:28:07.048Z,5.27
2023-12-03T14:30:54.145Z,6.23
2023-12-03T14:33:40.441Z,6.10
2023-12-03T14:36:27.257Z,5.10
2023-12-03T14:39:13.267Z,5.93
2023-12-03T14:42:01.048Z,6.23
2023-12-03T14:44:48.069Z,5.33
2023-12-03T14:47:34.275Z,6.50
2023-12-03T14:50:21.397Z,4.97
2023-12-03T14:53:08.274Z,5.63
2023-12-03T14:55:54.458Z,6.03
2023-12-03T14:58:42.067Z,4.83
2023-12-03T15:01:31.299Z,5.23
2023-12-03T15:04:17.648Z,4.93
2023-12-03T15:07:04.492Z,5.20
2023-12-03T15:09:53.220Z,5.67
2023-12-03T15:12:39.507Z,5.33
2023-12-03T15:15:27.373Z,5.33
2023-12-03T15:18:13.716Z,5.13
2023-12-03T15:21:00.455Z,5.37
2023-12-03T15:23:46.629Z,6.53
2023-12-03T15:26:32.905Z,5.60
2023-12-03T15:29:19.348Z,5.50
2023-12-03T15:32:07.740Z,4.77
2023-12-03T15:34:54.502Z,5.40
2023-12-03T15:37:40.772Z,4.93
2023-12-03T15:40:27.024Z,5.17
2023-12-03T15:43:13.340Z,5.83
2023-12-03T15:46:01.346Z,6.33
2023-12-03T15:48:56.191Z,5.83
2023-12-03T15:51:45.170Z,5.60
2023-12-03T15:54:31.571Z,5.50
2023-12-03T15:57:18.553Z,5.80
2023-12-03T16:00:06.911Z,4.90
2023-12-03T16:02:55.946Z,5.83
2023-12-03T16:05:43.800Z,6.43
2023-12-03T16:08:30.133Z,6.17
2023-12-03T16:11:16.958Z,5.43
2023-12-03T16:14:03.089Z,5.60
2023-12-03T16:16:49.229Z,5.70
2023-12-03T16:19:35.495Z,5.80
2023-12-03T16:22:23.486Z,5.43
2023-12-03T16:25:10.362Z,5.20
2023-12-03T16:27:57.224Z,5.40
2023-12-03T16:30:43.303Z,6.33
2023-12-03T16:33:30.512Z,5.77
2023-12-03T16:36:17.660Z,5.10
2023-12-03T16:39:06.394Z,5.37
2023-12-03T16:41:52.343Z,5.70
2023-12-03T16:44:39.002Z,5.77
2023-12-03T16:47:26.434Z,5.63
2023-12-03T16:50:13.700Z,6.80
2023-12-03T16:53:00.716Z,4.60
2023-12-03T16:55:50.071Z,6.27
2023-12-03T16:58:36.354Z,5.60
2023-12-03T17:01:22.779Z,6.17
2023-12-03T17:04:09.035Z,5.83
2023-12-03T17:06:56.822Z,5.33
2023-12-03T17:09:43.142Z,5.77
2023-12-03T17:12:36.773Z,5.87
2023-12-03T17:15:31.968Z,6.47
2023-12-03T17:18:18.092Z,6.10
2023-12-03T17:21:05.409Z,7.90
2023-12-03T17:23:51.508Z,6.13
2023-12-03T17:26:40.167Z,5.93
2023-12-03T17:29:30.163Z,5.53
2023-12-03T17:32:16.749Z,6.50
2023-12-03T17:35:03.092Z,5.50
2023-12-03T17:37:49.697Z,5.97
2023-12-03T17:40:35.750Z,7.37
2023-12-03T17:43:24.000Z,7.47
2023-12-03T17:46:12.483Z,5.60
2023-12-03T17:48:59.230Z,6.47
2023-12-03T17:51:45.804Z,6.43
2023-12-03T17:54:32.052Z,5.67
2023-12-03T17:57:18.382Z,6.53
2023-12-03T18:00:06.713Z,5.27
2023-12-03T18:02:54.292Z,5.47
2023-12-03T18:05:40.554Z,4.73
2023-12-03T18:08:26.824Z,5.87
2023-12-03T18:11:12.965Z,6.87
2023-12-03T18:13:59.787Z,5.87
2023-12-03T18:16:46.122Z,5.50
2023-12-03T18:19:33.882Z,5.87
2023-12-03T18:22:20.414Z,5.60
2023-12-03T18:25:13.126Z,7.03
2023-12-03T18:27:59.402Z,5.47
2023-12-03T18:30:45.592Z,5.30
2023-12-03T18:33:32.191Z,4.80
2023-12-03T18:36:20.355Z,6.57
2023-12-03T18:39:09.378Z,5.40
2023-12-03T18:41:55.703Z,4.87
2023-12-03T18:44:42.311Z,5.97
2023-12-03T18:47:28.813Z,5.60
2023-12-03T18:50:15.020Z,5.53
2023-12-03T18:53:04.019Z,5.67
2023-12-03T18:55:52.510Z,5.40
2023-12-03T18:58:38.549Z,6.70
2023-12-03T19:01:24.903Z,7.07
2023-12-03T19:04:14.424Z,6.10
2023-12-03T19:07:00.867Z,5.67
2023-12-03T19:09:48.416Z,6.37
2023-12-03T19:12:34.702Z,6.63
2023-12-03T19:15:21.499Z,5.17
2023-12-03T19:18:08.230Z,4.60
2023-12-03T19:20:55.693Z,5.47
2023-12-03T19:23:42.282Z,5.17
2023-12-03T19:26:29.919Z,5.77
2023-12-03T19:29:16.459Z,5.10
2023-12-03T19:32:02.934Z,4.70
2023-12-03T19:34:49.755Z,5.20
2023-12-03T19:37:35.848Z,5.67
2023-12-03T19:40:22.511Z,4.47
2023-12-03T19:43:10.355Z,4.20
2023-12-03T19:45:57.301Z,4.80
2023-12-03T19:48:43.838Z,5.13
2023-12-03T19:51:30.284Z,5.03
2023-12-03T19:54:16.473Z,4.77
2023-12-03T19:57:05.698Z,5.13
2023-12-03T19:59:53.468Z,8.17
2023-12-03T20:02:39.952Z,6.73
2023-12-03T20:05:26.677Z,5.93
2023-12-03T20:08:13.246Z,5.17
2023-12-03T20:10:59.802Z,5.47
2023-12-03T20:13:46.114Z,4.57
2023-12-03T20:16:34.142Z,5.40
2023-12-03T20:19:21.357Z,5.53
2023-12-03T20:22:07.856Z,5.10
2023-12-03T20:24:55.090Z,5.70
2023-12-03T20:27:41.228Z,4.47
2023-12-03T20:30:27.697Z,4.80
2023-12-03T20:33:15.768Z,5.37
2023-12-03T20:36:02.243Z,5.30
2023-12-03T20:38:48.653Z,6.47
2023-12-03T20:41:35.107Z,4.93
2023-12-03T20:44:21.451Z,5.43
2023-12-03T20:47:08.049Z,5.30
2023-12-03T20:49:55.958Z,5.30
2023-12-03T20:52:42.399Z,5.03
2023-12-03T20:55:28.604Z,3.87
2023-12-03T20:58:15.228Z,5.77
2023-12-03T21:01:01.497Z,4.57
2023-12-03T21:03:48.015Z,5.67
2023-12-03T21:06:35.711Z,4.13
2023-12-03T21:09:22.137Z,6.27
2023-12-03T21:12:08.818Z,4.70
2023-12-03T21:14:55.534Z,5.10
2023-12-03T21:17:41.774Z,6.03
2023-12-03T21:20:28.252Z,5.27
2023-12-03T21:23:16.094Z,4.43
2023-12-03T21:26:02.339Z,5.03
2023-12-03T21:28:48.471Z,5.27
2023-12-03T21:31:34.665Z,4.57
2023-12-03T21:34:20.839Z,5.47
2023-12-03T21:37:08.136Z,4.77
2023-12-03T21:39:55.787Z,5.77
2023-12-03T21:42:42.159Z,3.80
2023-12-03T21:45:28.382Z,5.27
2023-12-03T21:48:15.220Z,3.53
2023-12-03T21:51:01.657Z,4.43
2023-12-03T21:53:48.133Z,4.47
2023-12-03T21:56:35.757Z,4.97
2023-12-03T21:59:21.889Z,4.13
2023-12-03T22:02:08.408Z,4.53
2023-12-03T22:04:54.799Z,4.47
2023-12-03T22:07:41.432Z,4.03
2023-12-03T22:10:27.690Z,4.33
2023-12-03T22:13:15.407Z,4.30
2023-12-03T22:16:01.961Z,4.10
2023-12-03T22:18:50.591Z,4.07
2023-12-03T22:21:37.039Z,3.50
2023-12-03T22:24:23.433Z,3.53
2023-12-03T22:27:09.945Z,5.70
2023-12-03T22:30:03.241Z,4.23
2023-12-03T22:32:58.599Z,3.67
2023-12-03T22:35:44.668Z,4.03
2023-12-03T22:38:32.169Z,4.47
2023-12-03T22:41:19.025Z,4.53
2023-12-03T22:44:05.604Z,4.17
2023-12-03T22:46:53.965Z,5.17
2023-12-03T22:49:40.507Z,3.80
2023-12-03T22:52:26.680Z,4.73
2023-12-03T22:55:13.839Z,5.37
2023-12-03T22:58:00.372Z,4.03
2023-12-03T23:00:46.645Z,5.67
2023-12-03T23:03:34.322Z,5.63
2023-12-03T23:06:20.510Z,4.87
2023-12-03T23:09:07.492Z,5.10
2023-12-03T23:11:53.636Z,5.90
2023-12-03T23:14:42.409Z,4.53
2023-12-03T23:17:28.485Z,4.43
2023-12-03T23:20:16.432Z,5.53
2023-12-03T23:23:03.730Z,4.80
2023-12-03T23:25:49.885Z,5.03
2023-12-03T23:28:35.911Z,4.30
2023-12-03T23:31:22.145Z,5.97
2023-12-03T23:34:08.634Z,4.37
2023-12-03T23:36:58.830Z,4.47
2023-12-03T23:39:45.177Z,4.13
2023-12-03T23:42:31.573Z,4.57
2023-12-03T23:45:18.050Z,4.70
2023-12-03T23:48:04.684Z,4.83
2023-12-03T23:50:51.172Z,3.90
2023-12-03T23:53:39.258Z,4.13
2023-12-03T23:56:26.138Z,4.60
2023-12-03T23:59:12.628Z,4.33
